createdAt,value
2018-01-08T00:00:27.446Z,16.98
2018-01-08T00:01:27.424Z,17.04
2018-01-08T00:02:27.438Z,17.00
2018-01-08T00:03:27.412Z,17.00
2018-01-08T00:04:27.373Z,17.12
2018-01-08T00:05:27.361Z,17.00
2018-01-08T00:06:27.343Z,16.96
2018-01-08T00:07:27.374Z,16.91
2018-01-08T00:08:27.311Z,16.93
2018-01-08T00:09:27.295Z,16.86
2018-01-08T00:10:27.273Z,16.94
2018-01-08T00:11:27.258Z,16.91
2018-01-08T00:12:27.244Z,16.86
2018-01-08T00:13:27.245Z,16.82
2018-01-08T00:14:27.207Z,16.83
2018-01-08T00:15:27.195Z,16.79
2018-01-08T00:16:27.173Z,16.71
2018-01-08T00:17:27.162Z,16.76
2018-01-08T00:18:27.165Z,16.68
2018-01-08T00:19:27.122Z,16.75
2018-01-08T00:20:27.108Z,16.81
2018-01-08T00:21:27.091Z,16.79
2018-01-08T00:22:27.071Z,16.73
2018-01-08T00:23:27.076Z,16.79
2018-01-08T00:24:27.045Z,16.66
2018-01-08T00:25:27.022Z,16.75
2018-01-08T00:26:27.013Z,16.75
2018-01-08T00:27:26.990Z,16.86
2018-01-08T00:28:27.000Z,16.88
2018-01-08T00:29:26.956Z,16.88
2018-01-08T00:30:26.940Z,16.89
2018-01-08T00:31:26.920Z,16.93
2018-01-08T00:32:26.904Z,16.94
2018-01-08T00:33:26.887Z,16.98
2018-01-08T00:34:26.894Z,17.04
2018-01-08T00:35:26.853Z,17.12
2018-01-08T00:36:26.848Z,17.08
2018-01-08T00:37:26.820Z,17.19
2018-01-08T00:38:26.808Z,17.31
2018-01-08T00:39:26.811Z,17.34
2018-01-08T00:40:26.772Z,17.43
2018-01-08T00:41:26.754Z,17.46
2018-01-08T00:42:26.741Z,17.48
2018-01-08T00:43:26.725Z,17.56
2018-01-08T00:44:26.733Z,17.62
2018-01-08T00:45:26.710Z,17.71
2018-01-08T00:46:26.679Z,17.77
2018-01-08T00:47:26.660Z,17.82
2018-01-08T00:48:26.643Z,17.81
2018-01-08T00:49:26.630Z,17.89
2018-01-08T00:50:26.632Z,17.97
2018-01-08T00:51:26.593Z,17.96
2018-01-08T00:52:26.586Z,17.96
2018-01-08T00:53:26.561Z,17.97
2018-01-08T00:54:26.545Z,17.97
2018-01-08T00:55:26.553Z,17.97
2018-01-08T00:56:26.516Z,18.00
2018-01-08T00:57:26.497Z,17.95
2018-01-08T00:58:26.482Z,18.05
2018-01-08T00:59:26.468Z,17.96
2018-01-08T01:00:26.475Z,17.92
2018-01-08T01:01:26.433Z,17.99
2018-01-08T01:02:26.421Z,17.95
2018-01-08T01:03:26.403Z,17.96
2018-01-08T01:04:26.387Z,17.89
2018-01-08T01:05:26.376Z,17.90
2018-01-08T01:06:26.376Z,17.90
2018-01-08T01:07:26.343Z,17.93
2018-01-08T01:08:26.322Z,17.92
2018-01-08T01:09:26.307Z,17.78
2018-01-08T01:10:26.316Z,17.84
2018-01-08T01:11:26.276Z,17.77
2018-01-08T01:12:26.260Z,17.78
2018-01-08T01:13:26.247Z,17.78
2018-01-08T01:14:26.226Z,17.78
2018-01-08T01:15:26.237Z,17.75
2018-01-08T01:16:26.217Z,17.79
2018-01-08T01:17:26.183Z,17.78
2018-01-08T01:18:26.163Z,17.70
2018-01-08T01:19:26.149Z,17.74
2018-01-08T01:20:26.132Z,17.68
2018-01-08T01:21:26.141Z,17.64
2018-01-08T01:22:26.103Z,17.64
2018-01-08T01:23:26.086Z,17.66
2018-01-08T01:24:26.071Z,17.59
2018-01-08T01:25:26.054Z,17.54
2018-01-08T01:26:26.063Z,17.54
2018-01-08T01:27:26.047Z,17.58
2018-01-08T01:28:26.019Z,17.55
2018-01-08T01:29:25.986Z,17.52
2018-01-08T01:30:25.974Z,17.56
2018-01-08T01:31:25.957Z,17.49
2018-01-08T01:32:25.960Z,17.52
2018-01-08T01:33:25.925Z,17.46
2018-01-08T01:34:25.905Z,17.49
2018-01-08T01:35:25.891Z,17.48
2018-01-08T01:36:25.872Z,17.48
2018-01-08T01:37:25.878Z,17.48
2018-01-08T01:38:25.842Z,17.51
2018-01-08T01:39:25.826Z,17.40
2018-01-08T01:40:25.806Z,17.49
2018-01-08T01:41:25.793Z,17.49
2018-01-08T01:42:25.796Z,17.46
2018-01-08T01:43:25.757Z,17.51
2018-01-08T01:44:25.742Z,17.48
2018-01-08T01:45:25.724Z,17.40
2018-01-08T01:46:25.711Z,17.43
2018-01-08T01:47:25.721Z,17.43
2018-01-08T01:48:25.678Z,17.37
2018-01-08T01:49:25.682Z,17.31
2018-01-08T01:50:25.650Z,17.31
2018-01-08T01:51:25.626Z,17.34
2018-01-08T01:52:25.610Z,17.36
2018-01-08T01:53:25.620Z,17.22
2018-01-08T01:54:25.580Z,17.25
2018-01-08T01:55:25.563Z,17.19
2018-01-08T01:56:25.544Z,17.25
2018-01-08T01:57:25.527Z,17.21
2018-01-08T01:58:25.532Z,17.22
2018-01-08T01:59:25.499Z,17.23
2018-01-08T02:00:25.480Z,17.14
2018-01-08T02:01:25.479Z,17.19
2018-01-08T02:02:25.443Z,17.19
2018-01-08T02:03:25.454Z,17.22
2018-01-08T02:04:25.410Z,17.25
2018-01-08T02:05:25.419Z,17.18
2018-01-08T02:06:25.378Z,17.04
2018-01-08T02:07:25.361Z,17.11
2018-01-08T02:08:25.348Z,17.08
2018-01-08T02:09:25.351Z,17.04
2018-01-08T02:10:25.311Z,17.01
2018-01-08T02:11:25.301Z,16.98
2018-01-08T02:12:25.277Z,16.93
2018-01-08T02:13:25.262Z,16.97
2018-01-08T02:14:25.266Z,16.96
2018-01-08T02:15:25.231Z,16.94
2018-01-08T02:16:25.215Z,16.94
2018-01-08T02:17:25.195Z,16.91
2018-01-08T02:18:25.176Z,16.98
2018-01-08T02:19:25.186Z,16.91
2018-01-08T02:20:25.146Z,16.98
2018-01-08T02:21:25.128Z,16.97
2018-01-08T02:22:25.112Z,16.94
2018-01-08T02:23:25.094Z,16.93
2018-01-08T02:24:25.107Z,16.91
2018-01-08T02:25:25.060Z,16.82
2018-01-08T02:26:25.047Z,16.91
2018-01-08T02:27:25.052Z,16.86
2018-01-08T02:28:25.012Z,16.78
2018-01-08T02:29:24.994Z,16.82
2018-01-08T02:30:25.005Z,16.89
2018-01-08T02:31:24.963Z,16.82
2018-01-08T02:32:24.949Z,16.86
2018-01-08T02:33:24.929Z,16.86
2018-01-08T02:34:24.910Z,16.89
2018-01-08T02:35:24.922Z,16.93
2018-01-08T02:36:24.881Z,16.93
2018-01-08T02:37:24.863Z,16.91
2018-01-08T02:38:24.846Z,16.91
2018-01-08T02:39:24.832Z,16.96
2018-01-08T02:40:24.838Z,16.97
2018-01-08T02:41:24.797Z,17.07
2018-01-08T02:42:24.779Z,17.14
2018-01-08T02:43:24.770Z,17.22
2018-01-08T02:44:24.759Z,17.22
2018-01-08T02:45:24.755Z,17.21
2018-01-08T02:46:24.715Z,17.34
2018-01-08T02:47:24.695Z,17.43
2018-01-08T02:48:24.682Z,17.51
2018-01-08T02:49:24.685Z,17.46
2018-01-08T02:50:24.671Z,17.51
2018-01-08T02:51:24.653Z,17.55
2018-01-08T02:52:24.616Z,17.59
2018-01-08T02:53:24.596Z,17.79
2018-01-08T02:54:24.587Z,17.75
2018-01-08T02:55:24.566Z,17.79
2018-01-08T02:56:24.574Z,17.84
2018-01-08T02:57:24.533Z,17.81
2018-01-08T02:58:24.520Z,17.81
2018-01-08T02:59:24.502Z,17.84
2018-01-08T03:00:24.488Z,17.84
2018-01-08T03:01:24.492Z,17.90
2018-01-08T03:02:24.456Z,17.87
2018-01-08T03:03:24.439Z,17.93
2018-01-08T03:04:24.421Z,17.87
2018-01-08T03:05:24.408Z,17.89
2018-01-08T03:06:24.416Z,17.92
2018-01-08T03:07:24.373Z,17.93
2018-01-08T03:08:24.362Z,17.90
2018-01-08T03:09:24.340Z,17.93
2018-01-08T03:10:24.329Z,17.78
2018-01-08T03:11:24.336Z,17.86
2018-01-08T03:12:24.318Z,17.82
2018-01-08T03:13:24.280Z,17.81
2018-01-08T03:14:24.262Z,17.79
2018-01-08T03:15:24.247Z,17.81
2018-01-08T03:16:24.231Z,17.79
2018-01-08T03:17:24.241Z,17.75
2018-01-08T03:18:24.197Z,17.75
2018-01-08T03:19:24.185Z,17.75
2018-01-08T03:20:24.168Z,17.74
2018-01-08T03:21:24.152Z,17.74
2018-01-08T03:22:24.161Z,17.63
2018-01-08T03:23:24.121Z,17.68
2018-01-08T03:24:24.102Z,17.68
2018-01-08T03:25:24.088Z,17.64
2018-01-08T03:26:24.070Z,17.68
2018-01-08T03:27:24.075Z,17.62
2018-01-08T03:28:24.060Z,17.55
2018-01-08T03:29:24.020Z,17.52
2018-01-08T03:30:24.007Z,17.55
2018-01-08T03:31:23.990Z,17.54
2018-01-08T03:32:23.972Z,17.52
2018-01-08T03:33:23.981Z,17.46
2018-01-08T03:34:23.940Z,17.41
2018-01-08T03:35:23.926Z,17.52
2018-01-08T03:36:23.909Z,17.43
2018-01-08T03:37:23.894Z,17.41
2018-01-08T03:38:23.900Z,17.49
2018-01-08T03:39:23.863Z,17.49
2018-01-08T03:40:23.841Z,17.46
2018-01-08T03:41:23.826Z,17.43
2018-01-08T03:42:23.817Z,17.36
2018-01-08T03:43:23.818Z,17.41
2018-01-08T03:44:23.776Z,17.34
2018-01-08T03:45:23.761Z,17.44
2018-01-08T03:46:23.746Z,17.44
2018-01-08T03:47:23.730Z,17.40
2018-01-08T03:48:23.732Z,17.33
2018-01-08T03:49:23.696Z,17.34
2018-01-08T03:50:23.682Z,17.37
2018-01-08T03:51:23.661Z,17.36
2018-01-08T03:52:23.646Z,17.33
2018-01-08T03:53:23.628Z,17.30
2018-01-08T03:54:23.638Z,17.33
2018-01-08T03:55:23.596Z,17.22
2018-01-08T03:56:23.577Z,17.19
2018-01-08T03:57:23.562Z,17.21
2018-01-08T03:58:23.548Z,17.19
2018-01-08T03:59:23.553Z,17.23
2018-01-08T04:00:23.511Z,17.21
2018-01-08T04:01:23.495Z,17.19
2018-01-08T04:02:23.478Z,17.16
2018-01-08T04:03:23.464Z,17.19
2018-01-08T04:04:23.475Z,17.07
2018-01-08T04:05:23.429Z,17.11
2018-01-08T04:06:23.416Z,17.07
2018-01-08T04:07:23.393Z,17.04
2018-01-08T04:08:23.379Z,16.96
2018-01-08T04:09:23.369Z,16.93
2018-01-08T04:10:23.374Z,17.00
2018-01-08T04:11:23.330Z,16.93
2018-01-08T04:12:23.369Z,16.96
2018-01-08T04:13:23.301Z,16.86
2018-01-08T04:14:23.282Z,16.94
2018-01-08T04:15:23.285Z,16.94
2018-01-08T04:16:23.246Z,16.93
2018-01-08T04:17:23.231Z,16.93
2018-01-08T04:18:23.215Z,16.86
2018-01-08T04:19:23.199Z,16.79
2018-01-08T04:20:23.210Z,16.79
2018-01-08T04:21:23.164Z,16.82
2018-01-08T04:22:23.150Z,16.86
2018-01-08T04:23:23.131Z,16.88
2018-01-08T04:24:23.111Z,16.78
2018-01-08T04:25:23.118Z,16.79
2018-01-08T04:26:23.105Z,16.83
2018-01-08T04:27:23.064Z,16.88
2018-01-08T04:28:23.045Z,16.83
2018-01-08T04:29:23.029Z,16.88
2018-01-08T04:30:23.013Z,16.89
2018-01-08T04:31:23.019Z,16.89
2018-01-08T04:32:22.978Z,17.00
2018-01-08T04:33:22.961Z,17.01
2018-01-08T04:34:22.946Z,17.07
2018-01-08T04:35:22.930Z,17.18
2018-01-08T04:36:22.934Z,17.19
2018-01-08T04:37:22.897Z,17.26
2018-01-08T04:38:22.884Z,17.34
2018-01-08T04:39:22.867Z,17.48
2018-01-08T04:40:22.844Z,17.37
2018-01-08T04:41:22.855Z,17.44
2018-01-08T04:42:22.821Z,17.54
2018-01-08T04:43:22.797Z,17.56
2018-01-08T04:44:22.782Z,17.54
2018-01-08T04:45:22.768Z,17.58
2018-01-08T04:46:22.777Z,17.71
2018-01-08T04:47:22.732Z,17.64
2018-01-08T04:48:22.716Z,17.70
2018-01-08T04:49:22.704Z,17.72
2018-01-08T04:50:22.682Z,17.75
2018-01-08T04:51:22.667Z,17.72
2018-01-08T04:52:22.678Z,17.71
2018-01-08T04:53:22.634Z,17.78
2018-01-08T04:54:22.618Z,17.72
2018-01-08T04:55:22.604Z,17.71
2018-01-08T04:56:22.586Z,17.74
2018-01-08T04:57:22.596Z,17.78
2018-01-08T04:58:22.560Z,17.71
2018-01-08T04:59:22.538Z,17.77
2018-01-08T05:00:22.523Z,17.74
2018-01-08T05:01:22.521Z,17.64
2018-01-08T05:02:22.519Z,17.68
2018-01-08T05:03:22.477Z,17.66
2018-01-08T05:04:22.457Z,17.56
2018-01-08T05:05:22.443Z,17.66
2018-01-08T05:06:22.443Z,17.59
2018-01-08T05:07:22.431Z,17.58
2018-01-08T05:08:22.417Z,17.52
2018-01-08T05:09:22.376Z,17.58
2018-01-08T05:10:22.362Z,17.54
2018-01-08T05:11:22.350Z,17.55
2018-01-08T05:12:22.330Z,17.51
2018-01-08T05:13:22.334Z,17.46
2018-01-08T05:14:22.297Z,17.49
2018-01-08T05:15:22.284Z,17.52
2018-01-08T05:16:22.265Z,17.54
2018-01-08T05:17:22.250Z,17.46
2018-01-08T05:18:22.256Z,17.37
2018-01-08T05:19:22.214Z,17.44
2018-01-08T05:20:22.200Z,17.48
2018-01-08T05:21:22.182Z,17.41
2018-01-08T05:22:22.165Z,17.43
2018-01-08T05:23:22.153Z,17.38
2018-01-08T05:24:22.160Z,17.51
2018-01-08T05:25:22.119Z,17.43
2018-01-08T05:26:22.103Z,17.38
2018-01-08T05:27:22.086Z,17.43
2018-01-08T05:28:22.070Z,17.48
2018-01-08T05:29:22.075Z,17.33
2018-01-08T05:30:22.036Z,17.38
2018-01-08T05:31:22.021Z,17.34
2018-01-08T05:32:22.005Z,17.36
2018-01-08T05:33:21.983Z,17.33
2018-01-08T05:34:21.998Z,17.33
2018-01-08T05:35:21.954Z,17.22
2018-01-08T05:36:21.937Z,17.23
2018-01-08T05:37:21.918Z,17.28
2018-01-08T05:38:21.901Z,17.22
2018-01-08T05:39:21.929Z,17.19
2018-01-08T05:40:21.868Z,17.22
2018-01-08T05:41:21.855Z,17.21
2018-01-08T05:42:21.850Z,17.19
2018-01-08T05:43:21.818Z,17.16
2018-01-08T05:44:21.862Z,17.11
2018-01-08T05:45:21.824Z,17.15
2018-01-08T05:46:21.769Z,17.04
2018-01-08T05:47:21.752Z,17.07
2018-01-08T05:48:21.734Z,17.04
2018-01-08T05:49:21.719Z,17.04
2018-01-08T05:50:21.737Z,17.04
2018-01-08T05:51:21.687Z,17.11
2018-01-08T05:52:21.672Z,17.07
2018-01-08T05:53:21.653Z,17.08
2018-01-08T05:54:21.642Z,17.08
2018-01-08T05:55:21.650Z,16.98
2018-01-08T05:56:21.601Z,17.00
2018-01-08T05:57:21.616Z,16.91
2018-01-08T05:58:21.577Z,16.93
2018-01-08T05:59:21.589Z,16.96
2018-01-08T06:00:21.538Z,16.97
2018-01-08T06:01:21.540Z,16.93
2018-01-08T06:02:21.502Z,16.91
2018-01-08T06:03:21.485Z,17.00
2018-01-08T06:04:21.467Z,16.96
2018-01-08T06:05:21.451Z,16.91
2018-01-08T06:06:21.456Z,16.93
2018-01-08T06:07:21.423Z,16.98
2018-01-08T06:08:21.405Z,16.88
2018-01-08T06:09:21.382Z,16.96
2018-01-08T06:10:21.368Z,16.94
2018-01-08T06:11:21.378Z,16.97
2018-01-08T06:12:21.334Z,17.03
2018-01-08T06:13:21.323Z,16.94
2018-01-08T06:14:21.301Z,17.04
2018-01-08T06:15:21.283Z,17.01
2018-01-08T06:16:21.289Z,17.08
2018-01-08T06:17:21.254Z,17.11
2018-01-08T06:18:21.233Z,17.07
2018-01-08T06:19:21.217Z,17.04
2018-01-08T06:20:21.201Z,17.22
2018-01-08T06:21:21.212Z,17.22
2018-01-08T06:22:21.167Z,17.19
2018-01-08T06:23:21.151Z,17.25
2018-01-08T06:24:21.134Z,17.22
2018-01-08T06:25:21.120Z,17.25
2018-01-08T06:26:21.103Z,17.22
2018-01-08T06:27:21.104Z,17.23
2018-01-08T06:28:21.069Z,17.22
2018-01-08T06:29:21.052Z,17.31
2018-01-08T06:30:21.037Z,17.26
2018-01-08T06:31:21.019Z,17.33
2018-01-08T06:32:21.025Z,17.36
2018-01-08T06:33:20.990Z,17.31
2018-01-08T06:34:20.970Z,17.31
2018-01-08T06:35:20.956Z,17.33
2018-01-08T06:36:20.936Z,17.33
2018-01-08T06:37:20.946Z,17.34
2018-01-08T06:38:20.904Z,17.38
2018-01-08T06:39:20.889Z,17.44
2018-01-08T06:40:20.872Z,17.38
2018-01-08T06:41:20.861Z,17.37
2018-01-08T06:42:20.835Z,17.48
2018-01-08T06:43:20.843Z,17.46
2018-01-08T06:44:20.808Z,17.48
2018-01-08T06:45:20.788Z,17.43
2018-01-08T06:46:20.773Z,17.34
2018-01-08T06:47:20.758Z,17.38
2018-01-08T06:48:20.765Z,17.52
2018-01-08T06:49:20.724Z,17.43
2018-01-08T06:50:20.705Z,17.41
2018-01-08T06:51:20.696Z,17.43
2018-01-08T06:52:20.684Z,17.46
2018-01-08T06:53:20.678Z,17.44
2018-01-08T06:54:20.645Z,17.49
2018-01-08T06:55:20.631Z,17.49
2018-01-08T06:56:20.609Z,17.43
2018-01-08T06:57:20.594Z,17.48
2018-01-08T06:58:20.604Z,17.31
2018-01-08T06:59:20.586Z,17.51
2018-01-08T07:00:20.545Z,17.44
2018-01-08T07:01:20.527Z,17.34
2018-01-08T07:02:20.513Z,17.43
2018-01-08T07:03:20.494Z,17.41
2018-01-08T07:04:20.502Z,17.30
2018-01-08T07:05:20.458Z,17.37
2018-01-08T07:06:20.445Z,17.41
2018-01-08T07:07:20.428Z,17.28
2018-01-08T07:08:20.413Z,17.34
2018-01-08T07:09:20.421Z,17.34
2018-01-08T07:10:20.380Z,17.34
2018-01-08T07:11:20.367Z,17.25
2018-01-08T07:12:20.345Z,17.33
2018-01-08T07:13:20.333Z,17.28
2018-01-08T07:14:20.334Z,17.28
2018-01-08T07:15:20.296Z,17.28
2018-01-08T07:16:20.283Z,17.23
2018-01-08T07:17:20.263Z,17.23
2018-01-08T07:18:20.246Z,17.22
2018-01-08T07:19:20.264Z,17.22
2018-01-08T07:20:20.238Z,17.22
2018-01-08T07:21:20.201Z,17.22
2018-01-08T07:22:20.183Z,17.23
2018-01-08T07:23:20.167Z,17.19
2018-01-08T07:24:20.156Z,17.22
2018-01-08T07:25:20.156Z,17.21
2018-01-08T07:26:20.115Z,17.30
2018-01-08T07:27:20.098Z,17.30
2018-01-08T07:28:20.087Z,17.19
2018-01-08T07:29:20.066Z,17.23
2018-01-08T07:30:20.073Z,17.22
2018-01-08T07:31:20.032Z,17.22
2018-01-08T07:32:20.021Z,17.21
2018-01-08T07:33:20.000Z,17.18
2018-01-08T07:34:19.985Z,17.16
2018-01-08T07:35:19.999Z,17.14
2018-01-08T07:36:19.951Z,17.16
2018-01-08T07:37:19.935Z,17.07
2018-01-08T07:38:19.918Z,17.07
2018-01-08T07:39:19.898Z,17.06
2018-01-08T07:40:19.886Z,16.98
2018-01-08T07:41:19.888Z,17.01
2018-01-08T07:42:19.850Z,16.96
2018-01-08T07:43:19.833Z,16.98
2018-01-08T07:44:19.816Z,16.97
2018-01-08T07:45:19.801Z,16.98
2018-01-08T07:46:19.802Z,17.00
2018-01-08T07:47:19.772Z,17.03
2018-01-08T07:48:19.747Z,16.91
2018-01-08T07:49:19.732Z,17.01
2018-01-08T07:50:19.716Z,16.98
2018-01-08T07:51:19.719Z,16.91
2018-01-08T07:52:19.681Z,16.94
2018-01-08T07:53:19.667Z,17.00
2018-01-08T07:54:19.651Z,16.96
2018-01-08T07:55:19.635Z,16.96
2018-01-08T07:56:19.639Z,16.98
2018-01-08T07:57:19.621Z,16.89
2018-01-08T07:58:19.583Z,17.00
2018-01-08T07:59:19.626Z,16.93
2018-01-08T08:00:19.546Z,16.93
2018-01-08T08:01:19.534Z,16.88
2018-01-08T08:02:19.532Z,16.93
2018-01-08T08:03:19.500Z,16.89
2018-01-08T08:04:19.481Z,16.96
2018-01-08T08:05:19.464Z,17.00
2018-01-08T08:06:19.447Z,16.94
2018-01-08T08:07:19.451Z,16.94
2018-01-08T08:08:19.418Z,16.93
2018-01-08T08:09:19.398Z,16.91
2018-01-08T08:10:19.380Z,16.91
2018-01-08T08:11:19.366Z,16.88
2018-01-08T08:12:19.381Z,16.91
2018-01-08T08:13:19.351Z,16.85
2018-01-08T08:14:19.314Z,16.86
2018-01-08T08:15:19.294Z,16.86
2018-01-08T08:16:19.275Z,16.88
2018-01-08T08:17:19.259Z,16.86
2018-01-08T08:18:19.263Z,16.86
2018-01-08T08:19:19.227Z,16.81
2018-01-08T08:20:19.211Z,16.91
2018-01-08T08:21:19.191Z,16.83
2018-01-08T08:22:19.181Z,16.83
2018-01-08T08:23:19.184Z,16.79
2018-01-08T08:24:19.143Z,16.75
2018-01-08T08:25:19.127Z,16.75
2018-01-08T08:26:19.110Z,16.81
2018-01-08T08:27:19.088Z,16.78
2018-01-08T08:28:19.098Z,16.75
2018-01-08T08:29:19.063Z,16.73
2018-01-08T08:30:19.041Z,16.75
2018-01-08T08:31:19.021Z,16.68
2018-01-08T08:32:19.010Z,16.68
2018-01-08T08:33:19.014Z,16.68
2018-01-08T08:34:18.972Z,16.68
2018-01-08T08:35:18.961Z,16.68
2018-01-08T08:36:18.935Z,16.67
2018-01-08T08:37:18.922Z,16.63
2018-01-08T08:38:18.928Z,16.61
2018-01-08T08:39:18.907Z,16.63
2018-01-08T08:40:18.867Z,16.61
2018-01-08T08:41:18.851Z,16.63
2018-01-08T08:42:18.841Z,16.61
2018-01-08T08:43:18.814Z,16.63
2018-01-08T08:44:18.823Z,16.60
2018-01-08T08:45:18.782Z,16.61
2018-01-08T08:46:18.769Z,16.64
2018-01-08T08:47:18.749Z,16.64
2018-01-08T08:48:18.732Z,16.63
2018-01-08T08:49:18.749Z,16.60
2018-01-08T08:50:18.702Z,16.60
2018-01-08T08:51:18.682Z,16.61
2018-01-08T08:52:18.662Z,16.64
2018-01-08T08:53:18.648Z,16.58
2018-01-08T08:54:18.636Z,16.64
2018-01-08T08:55:18.641Z,16.64
2018-01-08T08:56:18.595Z,16.64
2018-01-08T08:57:18.579Z,16.52
2018-01-08T08:58:18.799Z,16.61
2018-01-08T08:59:18.546Z,16.60
2018-01-08T09:00:18.556Z,16.64
2018-01-08T09:01:18.522Z,16.58
2018-01-08T09:02:18.494Z,16.60
2018-01-08T09:03:18.482Z,16.57
2018-01-08T09:04:18.459Z,16.57
2018-01-08T09:05:18.468Z,16.52
2018-01-08T09:06:18.430Z,16.50
2018-01-08T09:07:18.416Z,16.53
2018-01-08T09:08:18.396Z,16.52
2018-01-08T09:09:18.377Z,16.46
2018-01-08T09:10:18.391Z,16.53
2018-01-08T09:11:18.350Z,16.50
2018-01-08T09:12:18.326Z,16.50
2018-01-08T09:13:18.315Z,16.50
2018-01-08T09:14:18.295Z,16.46
2018-01-08T09:15:18.275Z,16.49
2018-01-08T09:16:18.280Z,16.49
2018-01-08T09:17:18.247Z,16.49
2018-01-08T09:18:18.226Z,16.46
2018-01-08T09:19:18.215Z,16.42
2018-01-08T09:20:18.195Z,16.42
2018-01-08T09:21:18.209Z,16.42
2018-01-08T09:22:18.192Z,16.45
2018-01-08T09:23:18.152Z,16.45
2018-01-08T09:24:18.123Z,16.46
2018-01-08T09:25:18.106Z,16.39
2018-01-08T09:26:18.090Z,16.46
2018-01-08T09:27:18.094Z,16.34
2018-01-08T09:28:18.051Z,16.35
2018-01-08T09:29:18.037Z,16.38
2018-01-08T09:30:18.039Z,16.33
2018-01-08T09:31:18.005Z,16.41
2018-01-08T09:32:18.017Z,16.46
2018-01-08T09:33:17.968Z,16.38
2018-01-08T09:34:17.961Z,16.33
2018-01-08T09:35:17.938Z,16.27
2018-01-08T09:36:17.921Z,16.42
2018-01-08T09:37:17.929Z,16.39
2018-01-08T09:38:17.889Z,16.31
2018-01-08T09:39:17.870Z,16.35
2018-01-08T09:40:17.849Z,16.39
2018-01-08T09:41:17.832Z,16.33
2018-01-08T09:42:17.816Z,16.43
2018-01-08T09:43:17.843Z,16.34
2018-01-08T09:44:17.789Z,16.28
2018-01-08T09:45:17.769Z,16.38
2018-01-08T09:46:17.754Z,16.31
2018-01-08T09:47:17.743Z,16.33
2018-01-08T09:48:17.742Z,16.35
2018-01-08T09:49:17.698Z,16.42
2018-01-08T09:50:17.677Z,16.31
2018-01-08T09:51:17.658Z,16.31
2018-01-08T09:52:17.646Z,16.35
2018-01-08T09:53:17.627Z,16.35
2018-01-08T09:54:17.630Z,16.35
2018-01-08T09:55:17.593Z,16.25
2018-01-08T09:56:17.576Z,16.24
2018-01-08T09:57:17.559Z,16.30
2018-01-08T09:58:17.541Z,16.28
2018-01-08T09:59:17.550Z,16.27
2018-01-08T10:00:17.507Z,16.25
2018-01-08T10:01:17.490Z,16.25
2018-01-08T10:02:17.480Z,16.23
2018-01-08T10:03:17.478Z,16.27
2018-01-08T10:04:17.438Z,16.28
2018-01-08T10:05:17.446Z,16.35
2018-01-08T10:06:17.404Z,16.33
2018-01-08T10:07:17.383Z,16.35
2018-01-08T10:08:17.367Z,16.31
2018-01-08T10:09:17.352Z,16.25
2018-01-08T10:10:17.355Z,16.31
2018-01-08T10:11:17.316Z,16.30
2018-01-08T10:12:17.301Z,16.31
2018-01-08T10:13:17.293Z,16.33
2018-01-08T10:14:17.265Z,16.25
2018-01-08T10:15:17.273Z,16.24
2018-01-08T10:16:17.228Z,16.23
2018-01-08T10:17:17.221Z,16.27
2018-01-08T10:18:17.196Z,16.24
2018-01-08T10:19:17.179Z,16.23
2018-01-08T10:20:17.185Z,16.20
2018-01-08T10:21:17.148Z,16.21
2018-01-08T10:22:17.125Z,16.21
2018-01-08T10:23:17.111Z,16.17
2018-01-08T10:24:17.092Z,16.15
2018-01-08T10:25:17.105Z,16.14
2018-01-08T10:26:17.055Z,16.09
2018-01-08T10:27:17.040Z,16.21
2018-01-08T10:28:17.016Z,16.24
2018-01-08T10:29:17.010Z,16.21
2018-01-08T10:30:16.988Z,16.12
2018-01-08T10:31:17.004Z,16.17
2018-01-08T10:32:16.975Z,16.11
2018-01-08T10:33:16.937Z,16.09
2018-01-08T10:34:16.927Z,16.14
2018-01-08T10:35:16.899Z,16.15
2018-01-08T10:36:16.881Z,16.11
2018-01-08T10:37:16.898Z,16.11
2018-01-08T10:38:16.846Z,16.21
2018-01-08T10:39:16.829Z,16.11
2018-01-08T10:40:16.811Z,16.11
2018-01-08T10:41:16.794Z,16.09
2018-01-08T10:42:16.804Z,16.07
2018-01-08T10:43:16.757Z,16.11
2018-01-08T10:44:16.747Z,16.12
2018-01-08T10:45:16.749Z,16.08
2018-01-08T10:46:16.709Z,16.09
2018-01-08T10:47:16.693Z,16.12
2018-01-08T10:48:16.693Z,16.09
2018-01-08T10:49:16.653Z,16.08
2018-01-08T10:50:16.637Z,16.09
2018-01-08T10:51:16.620Z,16.11
2018-01-08T10:52:16.601Z,16.11
2018-01-08T10:53:16.606Z,16.07
2018-01-08T10:54:16.566Z,16.02
2018-01-08T10:55:16.553Z,16.09
2018-01-08T10:56:16.535Z,16.09
2018-01-08T10:57:16.512Z,16.05
2018-01-08T10:58:16.521Z,16.04
2018-01-08T10:59:16.480Z,16.07
2018-01-08T11:00:16.462Z,16.08
2018-01-08T11:01:16.442Z,16.05
2018-01-08T11:02:16.428Z,16.05
2018-01-08T11:03:16.441Z,16.14
2018-01-08T11:04:16.389Z,16.02
2018-01-08T11:05:16.417Z,16.05
2018-01-08T11:06:16.355Z,16.02
2018-01-08T11:07:16.337Z,16.05
2018-01-08T11:08:16.329Z,16.05
2018-01-08T11:09:16.326Z,16.04
2018-01-08T11:10:16.283Z,16.04
2018-01-08T11:11:16.275Z,16.01
2018-01-08T11:12:16.253Z,16.01
2018-01-08T11:13:16.235Z,16.04
2018-01-08T11:14:16.244Z,16.00
2018-01-08T11:15:16.207Z,16.07
2018-01-08T11:16:16.220Z,16.08
2018-01-08T11:17:16.189Z,15.96
2018-01-08T11:18:16.152Z,15.96
2018-01-08T11:19:16.149Z,16.09
2018-01-08T11:20:16.135Z,16.02
2018-01-08T11:21:16.095Z,16.00
2018-01-08T11:22:16.080Z,15.94
2018-01-08T11:23:16.063Z,16.02
2018-01-08T11:24:16.040Z,15.97
2018-01-08T11:25:16.052Z,15.89
2018-01-08T11:26:16.007Z,15.92
2018-01-08T11:27:16.008Z,15.97
2018-01-08T11:28:15.970Z,16.01
2018-01-08T11:29:15.982Z,15.93
2018-01-08T11:30:15.937Z,15.86
2018-01-08T11:31:15.957Z,15.97
2018-01-08T11:32:15.986Z,15.94
2018-01-08T11:33:15.884Z,15.84
2018-01-08T11:34:15.867Z,15.84
2018-01-08T11:35:15.873Z,15.92
2018-01-08T11:36:15.859Z,15.89
2018-01-08T11:37:15.825Z,15.90
2018-01-08T11:38:15.834Z,15.90
2018-01-08T11:39:15.779Z,15.84
2018-01-08T11:40:15.763Z,15.89
2018-01-08T11:41:15.772Z,15.90
2018-01-08T11:42:15.726Z,15.87
2018-01-08T11:43:15.713Z,15.83
2018-01-08T11:44:15.689Z,15.84
2018-01-08T11:45:15.678Z,15.94
2018-01-08T11:46:15.665Z,15.86
2018-01-08T11:47:15.831Z,15.86
2018-01-08T11:48:15.652Z,15.83
2018-01-08T11:49:15.605Z,15.83
2018-01-08T11:50:15.586Z,15.84
2018-01-08T11:51:15.570Z,15.86
2018-01-08T11:52:15.556Z,15.78
2018-01-08T11:53:15.539Z,15.75
2018-01-08T11:54:15.542Z,15.75
2018-01-08T11:55:15.498Z,15.76
2018-01-08T11:56:15.490Z,15.87
2018-01-08T11:57:15.464Z,15.84
2018-01-08T11:58:15.476Z,15.86
2018-01-08T11:59:15.436Z,15.83
2018-01-08T12:00:15.411Z,15.80
2018-01-08T12:01:15.395Z,15.80
2018-01-08T12:02:15.379Z,15.84
2018-01-08T12:03:15.357Z,15.83
2018-01-08T12:04:15.364Z,15.80
2018-01-08T12:05:15.324Z,15.76
2018-01-08T12:06:15.302Z,15.75
2018-01-08T12:07:15.291Z,15.74
2018-01-08T12:08:15.270Z,15.72
2018-01-08T12:09:15.281Z,15.83
2018-01-08T12:10:15.234Z,15.67
2018-01-08T12:11:15.215Z,15.76
2018-01-08T12:12:15.199Z,15.65
2018-01-08T12:13:15.181Z,15.65
2018-01-08T12:14:15.165Z,15.72
2018-01-08T12:15:15.171Z,15.76
2018-01-08T12:16:15.161Z,15.72
2018-01-08T12:17:15.115Z,15.67
2018-01-08T12:18:15.091Z,15.72
2018-01-08T12:19:15.082Z,15.68
2018-01-08T12:20:15.084Z,15.68
2018-01-08T12:21:15.039Z,15.69
2018-01-08T12:22:15.023Z,15.64
2018-01-08T12:23:15.005Z,15.65
2018-01-08T12:24:14.988Z,15.64
2018-01-08T12:25:14.974Z,15.65
2018-01-08T12:26:14.978Z,15.60
2018-01-08T12:27:14.940Z,15.60
2018-01-08T12:28:14.925Z,15.71
2018-01-08T12:29:14.910Z,15.67
2018-01-08T12:30:14.882Z,15.62
2018-01-08T12:31:14.888Z,15.64
2018-01-08T12:32:14.844Z,15.72
2018-01-08T12:33:14.827Z,15.62
2018-01-08T12:34:14.808Z,15.71
2018-01-08T12:35:14.792Z,15.67
2018-01-08T12:36:14.799Z,15.69
2018-01-08T12:37:14.766Z,15.69
2018-01-08T12:38:14.741Z,15.69
2018-01-08T12:39:14.720Z,15.76
2018-01-08T12:40:14.707Z,15.62
2018-01-08T12:41:14.719Z,15.75
2018-01-08T12:42:14.671Z,15.68
2018-01-08T12:43:14.657Z,15.80
2018-01-08T12:44:14.633Z,15.78
2018-01-08T12:45:14.614Z,15.82
2018-01-08T12:46:14.601Z,15.90
2018-01-08T12:47:14.603Z,15.96
2018-01-08T12:48:14.563Z,15.96
2018-01-08T12:49:14.547Z,16.11
2018-01-08T12:50:14.528Z,16.28
2018-01-08T12:51:14.513Z,16.33
2018-01-08T12:52:14.516Z,16.45